Time;durP1;ratioP1;P1;durP2;ratioP2;P2;SDS_P1;SDS_P2;PMS_P1;PMS_P2;Temp;Humidity;BMP_temperature;BMP_pressure;BME280_temperature;BME280_humidity;BME280_pressure;Samples;Min_cycle;Max_cycle;Signal;HPM_P1;HPM_P2
2023/01/25 00:02:07;;;;;;;21.98;12.60;;;0.80;99.90;;;;;;5078496;28;20032;-77
2023/01/25 00:04:33;;;;;;;22.92;12.48;;;0.90;99.90;;;;;;5076729;28;20040;-77
2023/01/25 00:06:59;;;;;;;23.73;12.00;;;0.80;99.90;;;;;;5078145;28;20039;-77
2023/01/25 00:09:25;;;;;;;21.30;12.20;;;0.80;99.90;;;;;;5079436;28;20122;-77
2023/01/25 00:11:52;;;;;;;23.60;12.18;;;0.80;99.90;;;;;;5081858;28;20023;-77
2023/01/25 00:14:18;;;;;;;23.27;12.45;;;0.80;99.90;;;;;;5079132;28;20540;-77
2023/01/25 00:16:44;;;;;;;22.23;12.20;;;0.80;99.90;;;;;;5079657;28;20024;-77
2023/01/25 00:19:10;;;;;;;25.15;12.88;;;0.90;99.90;;;;;;5074287;28;20032;-77
2023/01/25 00:21:37;;;;;;;23.38;12.05;;;0.80;99.90;;;;;;5082639;28;20071;-77
2023/01/25 00:24:03;;;;;;;23.38;12.05;;;0.80;99.90;;;;;;5079481;28;20028;-77
2023/01/25 00:26:30;;;;;;;22.55;12.00;;;0.80;99.90;;;;;;5080148;28;20058;-78
2023/01/25 00:28:56;;;;;;;22.42;12.77;;;0.80;99.90;;;;;;5075716;28;20091;-77
2023/01/25 00:31:33;;;;;;;22.77;12.32;;;0.70;99.90;;;;;;5077695;28;20063;-76
2023/01/25 00:34:19;;;;;;;21.20;11.93;;;0.80;99.90;;;;;;5079228;28;20029;-77
2023/01/25 00:36:49;;;;;;;23.52;12.13;;;0.80;99.90;;;;;;5083269;28;20020;-77
2023/01/25 00:39:15;;;;;;;23.88;11.82;;;0.70;99.90;;;;;;5075757;28;20652;-76
2023/01/25 00:41:42;;;;;;;20.75;11.90;;;0.70;99.90;;;;;;5082615;28;20089;-77
2023/01/25 00:44:08;;;;;;;21.20;11.43;;;0.70;99.90;;;;;;5077059;28;20033;-78
2023/01/25 00:46:35;;;;;;;19.50;10.85;;;0.70;99.90;;;;;;5068062;28;20025;-76
2023/01/25 00:49:03;;;;;;;22.10;11.27;;;0.70;99.90;;;;;;5078421;28;20401;-77
2023/01/25 00:51:50;;;;;;;23.00;11.90;;;0.70;99.90;;;;;;5078023;28;20546;-77
2023/01/25 00:54:16;;;;;;;21.75;11.63;;;0.60;99.90;;;;;;5083246;28;20598;-77
2023/01/25 00:56:44;;;;;;;20.50;10.80;;;0.60;99.90;;;;;;5077425;28;20028;-77
2023/01/25 00:59:11;;;;;;;22.15;11.93;;;0.60;99.90;;;;;;5078059;28;20492;-77
2023/01/25 01:01:42;;;;;;;22.63;12.00;;;0.60;99.90;;;;;;5077409;28;20024;-77
2023/01/25 01:04:10;;;;;;;18.45;11.15;;;0.50;99.90;;;;;;5073746;28;20070;-77
2023/01/25 01:06:39;;;;;;;20.67;11.85;;;0.50;99.90;;;;;;5075940;28;20028;-78
2023/01/25 01:09:07;;;;;;;20.60;11.13;;;0.60;99.90;;;;;;5084710;28;20020;-77
2023/01/25 01:11:33;;;;;;;17.95;10.20;;;0.60;99.90;;;;;;5078505;28;20111;-77
2023/01/25 01:13:59;;;;;;;17.88;11.13;;;0.60;99.90;;;;;;5076554;28;20059;-76
2023/01/25 01:16:25;;;;;;;21.13;11.57;;;0.60;99.90;;;;;;5078016;28;20059;-78
2023/01/25 01:18:52;;;;;;;18.80;10.45;;;0.70;99.90;;;;;;5077651;28;20051;-78
2023/01/25 01:21:19;;;;;;;18.35;10.00;;;0.70;99.90;;;;;;5075577;28;20069;-76
2023/01/25 01:23:45;;;;;;;19.10;10.15;;;0.70;99.90;;;;;;5075458;28;20064;-76
2023/01/25 01:26:13;;;;;;;18.83;9.70;;;0.70;99.90;;;;;;5081058;28;20048;-76
2023/01/25 01:28:40;;;;;;;17.05;9.88;;;0.70;99.90;;;;;;5083566;28;20028;-77
2023/01/25 01:31:09;;;;;;;19.55;10.40;;;0.70;99.90;;;;;;5078327;28;20024;-77
2023/01/25 01:33:39;;;;;;;18.85;9.75;;;0.70;99.90;;;;;;5080435;28;20021;-77
2023/01/25 01:36:07;;;;;;;20.75;9.95;;;0.70;99.90;;;;;;5083750;28;20595;-77
2023/01/25 01:38:33;;;;;;;19.23;10.07;;;0.80;99.90;;;;;;5085925;28;20127;-77
2023/01/25 01:41:01;;;;;;;19.42;10.07;;;0.70;99.90;;;;;;5083408;28;20497;-77
2023/01/25 01:43:27;;;;;;;18.73;11.25;;;0.60;99.90;;;;;;5067731;28;20036;-77
2023/01/25 01:45:57;;;;;;;19.63;10.82;;;0.60;99.90;;;;;;5075878;28;20043;-77
2023/01/25 01:48:35;;;;;;;19.20;10.82;;;0.50;99.90;;;;;;5075391;28;20727;-77
2023/01/25 01:51:16;;;;;;;19.33;11.02;;;0.50;99.90;;;;;;5079468;28;20032;-77
2023/01/25 01:53:47;;;;;;;20.92;11.18;;;0.50;99.90;;;;;;5058887;28;20032;-77
2023/01/25 01:56:18;;;;;;;17.15;10.15;;;0.60;99.90;;;;;;5079971;28;20020;-77
2023/01/25 01:58:45;;;;;;;21.13;10.75;;;0.70;99.90;;;;;;5066090;28;20028;-77
2023/01/25 02:01:11;;;;;;;20.27;11.00;;;0.80;99.90;;;;;;5073544;28;20159;-77
2023/01/25 02:03:39;;;;;;;19.38;9.88;;;0.80;99.90;;;;;;5071083;28;20031;-77
2023/01/25 02:06:11;;;;;;;18.80;9.90;;;0.70;99.90;;;;;;5073815;28;20393;-77
2023/01/25 02:08:39;;;;;;;19.85;10.82;;;0.70;99.90;;;;;;5063314;28;20472;-77
2023/01/25 02:11:08;;;;;;;19.17;10.82;;;0.60;99.90;;;;;;5074619;28;20013;-77
2023/01/25 02:13:36;;;;;;;20.77;10.85;;;0.50;99.90;;;;;;5070598;28;20532;-77
2023/01/25 02:16:03;;;;;;;14.27;8.82;;;0.50;99.90;;;;;;5086340;28;20024;-76
2023/01/25 02:18:30;;;;;;;17.52;10.23;;;0.50;99.90;;;;;;5081121;28;20683;-76
2023/01/25 02:20:58;;;;;;;15.13;8.93;;;0.50;99.90;;;;;;5070564;28;20024;-77
2023/01/25 02:23:35;;;;;;;17.73;9.68;;;0.50;99.90;;;;;;5077908;28;20032;-77
2023/01/25 02:26:04;;;;;;;17.65;8.50;;;0.60;99.90;;;;;;5080968;28;20027;-77
2023/01/25 02:28:47;;;;;;;17.08;9.05;;;0.60;99.90;;;;;;5083174;28;20025;-76
2023/01/25 02:31:13;;;;;;;17.95;9.07;;;0.60;99.90;;;;;;5087825;28;20032;-77
2023/01/25 02:33:39;;;;;;;16.75;9.75;;;0.60;99.90;;;;;;5068959;28;20035;-76
2023/01/25 02:36:08;;;;;;;17.27;9.18;;;0.50;99.90;;;;;;5070777;28;20027;-77
2023/01/25 02:38:44;;;;;;;18.52;9.68;;;0.60;99.90;;;;;;5084821;28;20025;-78
2023/01/25 02:41:33;;;;;;;20.10;10.35;;;0.50;99.90;;;;;;5077841;28;20028;-77
2023/01/25 02:44:01;;;;;;;19.40;9.82;;;0.50;99.90;;;;;;5082648;28;20396;-77
2023/01/25 02:46:30;;;;;;;17.60;10.43;;;0.50;99.90;;;;;;5082188;28;20029;-76
2023/01/25 02:48:58;;;;;;;21.30;10.50;;;0.50;99.90;;;;;;5080874;28;20020;-77
2023/01/25 02:51:31;;;;;;;21.10;11.35;;;0.50;99.90;;;;;;5091662;28;20031;-76
2023/01/25 02:53:58;;;;;;;20.13;10.15;;;0.60;99.90;;;;;;5072741;28;20119;-76
2023/01/25 02:56:24;;;;;;;18.27;10.30;;;0.60;99.90;;;;;;5049909;28;20033;-77
2023/01/25 02:58:50;;;;;;;20.65;10.63;;;0.60;99.90;;;;;;5077570;28;20038;-76
2023/01/25 03:01:18;;;;;;;18.05;10.50;;;0.60;99.90;;;;;;5073505;28;20039;-76
2023/01/25 03:03:44;;;;;;;20.48;9.95;;;0.60;99.90;;;;;;5080729;28;20029;-76
2023/01/25 03:06:11;;;;;;;22.85;11.00;;;0.70;99.90;;;;;;5071239;28;20044;-76
2023/01/25 03:08:38;;;;;;;19.95;10.80;;;0.70;99.90;;;;;;5086276;28;20051;-77
2023/01/25 03:11:06;;;;;;;21.48;11.02;;;0.60;99.90;;;;;;5070509;28;20052;-77
2023/01/25 03:13:34;;;;;;;20.77;9.65;;;0.60;99.90;;;;;;5073817;28;20063;-77
2023/01/25 03:16:07;;;;;;;17.40;8.85;;;0.50;99.90;;;;;;5079952;28;20107;-76
2023/01/25 03:18:34;;;;;;;20.15;9.85;;;0.50;99.90;;;;;;5087539;28;20024;-76
2023/01/25 03:21:06;;;;;;;16.85;8.73;;;0.40;99.90;;;;;;5086119;28;20021;-75
2023/01/25 03:23:33;;;;;;;18.67;9.73;;;0.40;99.90;;;;;;5080716;28;20024;-77
2023/01/25 03:26:08;;;;;;;16.65;8.52;;;0.50;99.90;;;;;;5084532;28;20455;-76
2023/01/25 03:28:34;;;;;;;16.88;9.10;;;0.50;99.90;;;;;;5083802;28;20019;-76
2023/01/25 03:31:01;;;;;;;17.40;9.13;;;0.50;99.90;;;;;;5049609;28;20116;-76
2023/01/25 03:33:27;;;;;;;16.80;8.85;;;0.50;99.90;;;;;;5065915;28;20115;-77
2023/01/25 03:35:54;;;;;;;17.77;9.48;;;0.50;99.90;;;;;;5078353;28;20031;-75
2023/01/25 03:38:20;;;;;;;18.85;10.00;;;0.50;99.90;;;;;;5080767;28;20119;-77
2023/01/25 03:40:46;;;;;;;19.70;10.48;;;0.50;99.90;;;;;;5080668;28;20036;-76
2023/01/25 03:43:13;;;;;;;17.27;10.05;;;0.50;99.90;;;;;;5069406;28;20028;-78
2023/01/25 03:45:39;;;;;;;17.60;9.43;;;0.50;99.90;;;;;;5090288;28;20107;-77
2023/01/25 03:48:05;;;;;;;18.20;9.82;;;0.50;99.90;;;;;;5078108;28;20097;-77
2023/01/25 03:50:32;;;;;;;18.67;10.20;;;0.50;99.90;;;;;;5052856;28;20506;-77
2023/01/25 03:53:04;;;;;;;19.17;9.30;;;0.50;99.90;;;;;;5070148;28;20025;-76
2023/01/25 03:55:31;;;;;;;18.65;9.18;;;0.40;99.90;;;;;;5073129;28;20036;-78
2023/01/25 03:57:56;;;;;;;17.33;9.80;;;0.40;99.90;;;;;;5070805;28;20093;-76
2023/01/25 04:00:25;;;;;;;17.83;9.65;;;0.50;99.90;;;;;;5068851;28;20028;-77
2023/01/25 04:02:57;;;;;;;13.93;7.85;;;0.50;99.90;;;;;;5074916;28;20143;-76
2023/01/25 04:05:25;;;;;;;17.05;8.18;;;0.50;99.90;;;;;;5037041;28;20078;-77
2023/01/25 04:07:51;;;;;;;12.98;7.65;;;0.50;99.90;;;;;;5081357;28;20032;-77
2023/01/25 04:10:26;;;;;;;17.40;8.75;;;0.40;99.90;;;;;;5084488;28;20047;-77
2023/01/25 04:12:53;;;;;;;17.98;9.00;;;0.50;99.90;;;;;;5083429;28;20036;-77
2023/01/25 04:15:19;;;;;;;18.15;8.85;;;0.50;99.90;;;;;;5068669;28;21279;-78
2023/01/25 04:17:45;;;;;;;17.85;9.40;;;0.50;99.90;;;;;;5053479;28;20036;-75
2023/01/25 04:20:17;;;;;;;20.38;9.68;;;0.40;99.90;;;;;;5068036;28;20458;-76
2023/01/25 04:22:43;;;;;;;18.65;8.90;;;0.30;99.90;;;;;;5078791;28;20228;-77
2023/01/25 04:25:09;;;;;;;18.35;8.88;;;0.30;99.90;;;;;;5066732;28;20056;-76
2023/01/25 04:27:40;;;;;;;17.63;9.32;;;0.30;99.90;;;;;;5064108;28;20028;-78
2023/01/25 04:30:10;;;;;;;16.98;8.05;;;0.30;99.90;;;;;;5075297;28;20035;-77
2023/01/25 04:32:36;;;;;;;15.60;7.47;;;0.20;99.90;;;;;;5065700;28;20024;-76
2023/01/25 04:35:08;;;;;;;18.55;8.95;;;0.20;99.90;;;;;;5067146;28;20032;-76
2023/01/25 04:37:35;;;;;;;17.17;8.25;;;0.20;99.90;;;;;;5078882;28;20032;-76
2023/01/25 04:40:03;;;;;;;17.77;8.98;;;0.20;99.90;;;;;;5066500;28;20028;-76
2023/01/25 04:42:34;;;;;;;16.50;7.47;;;0.20;99.90;;;;;;5079925;28;20512;-76
2023/01/25 04:45:01;;;;;;;16.55;8.50;;;0.20;99.90;;;;;;5072969;28;20037;-76
2023/01/25 04:47:27;;;;;;;17.60;8.65;;;0.20;99.90;;;;;;5065533;28;20134;-76
2023/01/25 04:49:53;;;;;;;14.60;7.88;;;0.20;99.90;;;;;;5068213;28;20059;-76
2023/01/25 04:52:23;;;;;;;18.27;7.78;;;0.20;99.90;;;;;;5066121;28;20058;-77
2023/01/25 04:55:08;;;;;;;14.90;7.23;;;0.20;99.90;;;;;;5076458;28;20043;-77
2023/01/25 04:57:39;;;;;;;14.48;7.15;;;0.20;99.90;;;;;;5080650;28;20271;-77
2023/01/25 05:00:06;;;;;;;11.85;6.75;;;0.20;99.90;;;;;;5084624;28;20553;-77
2023/01/25 05:02:32;;;;;;;16.88;8.95;;;0.20;99.90;;;;;;5072005;28;20111;-77
2023/01/25 05:04:58;;;;;;;14.35;7.72;;;0.30;99.90;;;;;;5079474;28;20039;-76
2023/01/25 05:07:24;;;;;;;18.63;8.73;;;0.30;99.90;;;;;;5082331;28;20028;-76
2023/01/25 05:09:50;;;;;;;13.63;7.53;;;0.30;99.90;;;;;;5088727;28;20084;-76
2023/01/25 05:12:18;;;;;;;17.98;8.55;;;0.30;99.90;;;;;;5088377;28;20035;-75
2023/01/25 05:14:52;;;;;;;17.65;8.75;;;0.30;99.90;;;;;;5063958;28;20366;-76
2023/01/25 05:17:20;;;;;;;16.17;8.18;;;0.30;99.90;;;;;;5089422;28;20035;-76
2023/01/25 05:19:46;;;;;;;16.92;8.20;;;0.30;99.90;;;;;;5068038;28;20557;-76
2023/01/25 05:22:16;;;;;;;16.67;7.43;;;0.30;99.90;;;;;;5084523;28;20118;-76
2023/01/25 05:24:47;;;;;;;14.55;7.65;;;0.30;99.90;;;;;;5074304;28;20028;-76
2023/01/25 05:27:17;;;;;;;14.05;6.68;;;0.30;99.90;;;;;;5093277;28;20025;-76
2023/01/25 05:29:53;;;;;;;13.68;6.78;;;0.20;99.90;;;;;;5080724;28;20024;-77
2023/01/25 05:32:22;;;;;;;14.88;7.95;;;0.20;99.90;;;;;;5078014;28;20085;-76
2023/01/25 05:34:48;;;;;;;18.85;9.23;;;0.10;99.90;;;;;;5080449;28;20021;-76
2023/01/25 05:37:17;;;;;;;14.93;7.75;;;0.10;99.90;;;;;;5072910;28;20123;-76
2023/01/25 05:39:46;;;;;;;14.45;8.23;;;0.10;99.90;;;;;;5073932;28;20081;-76
2023/01/25 05:42:17;;;;;;;15.02;7.40;;;0.10;99.90;;;;;;5078851;28;20029;-76
2023/01/25 05:44:44;;;;;;;14.13;7.50;;;0.10;99.90;;;;;;5086357;28;20035;-77
2023/01/25 05:47:14;;;;;;;15.93;7.65;;;0.20;99.90;;;;;;5083304;28;20028;-79
2023/01/25 05:49:41;;;;;;;18.42;10.38;;;0.20;99.90;;;;;;5085523;28;20020;-76
2023/01/25 05:52:13;;;;;;;15.63;7.35;;;0.20;99.90;;;;;;5070324;28;20082;-76
2023/01/25 05:54:39;;;;;;;20.83;11.23;;;0.20;99.90;;;;;;5073226;28;20032;-76
2023/01/25 05:57:05;;;;;;;20.58;10.85;;;0.30;99.90;;;;;;5082038;28;20374;-76
2023/01/25 05:59:33;;;;;;;44.30;22.08;;;0.20;99.90;;;;;;5077545;28;20036;-76
2023/01/25 06:01:59;;;;;;;98.28;42.13;;;0.20;99.90;;;;;;5068814;28;20027;-77
2023/01/25 06:04:24;;;;;;;18.45;9.10;;;0.20;99.90;;;;;;5088864;28;20028;-75
2023/01/25 06:06:50;;;;;;;14.98;8.18;;;0.20;99.90;;;;;;5063815;28;20472;-76
2023/01/25 06:09:16;;;;;;;16.83;8.57;;;0.20;99.90;;;;;;5080679;28;20028;-76
2023/01/25 06:11:44;;;;;;;16.00;8.45;;;0.20;99.90;;;;;;5081835;28;20020;-77
2023/01/25 06:14:10;;;;;;;23.65;11.05;;;0.20;99.90;;;;;;5075064;28;20025;-76
2023/01/25 06:16:36;;;;;;;19.15;10.13;;;0.20;99.90;;;;;;5083833;28;20024;-77
2023/01/25 06:19:21;;;;;;;36.40;16.55;;;0.20;99.90;;;;;;5081022;28;20084;-76
2023/01/25 06:22:07;;;;;;;18.48;9.85;;;0.20;99.90;;;;;;5081381;28;20403;-76
2023/01/25 06:24:34;;;;;;;15.30;7.60;;;0.20;99.90;;;;;;5085135;28;20105;-76
2023/01/25 06:26:59;;;;;;;13.70;7.15;;;0.10;99.90;;;;;;5077087;28;20036;-77
2023/01/25 06:29:25;;;;;;;15.15;7.97;;;0.10;99.90;;;;;;5075988;28;20024;-75
2023/01/25 06:31:52;;;;;;;15.23;8.48;;;0.20;99.90;;;;;;5076229;28;20025;-76
2023/01/25 06:34:18;;;;;;;15.98;8.40;;;0.20;99.90;;;;;;5075758;28;20091;-75
2023/01/25 06:36:44;;;;;;;13.90;7.50;;;0.20;99.90;;;;;;5083273;28;20031;-76
2023/01/25 06:39:10;;;;;;;14.73;7.47;;;0.20;99.90;;;;;;5087759;28;20035;-77
2023/01/25 06:41:36;;;;;;;15.57;7.68;;;0.10;99.90;;;;;;5089795;28;20024;-76
2023/01/25 06:44:02;;;;;;;22.73;11.43;;;0.10;99.90;;;;;;5086628;28;20032;-76
2023/01/25 06:46:32;;;;;;;17.60;9.07;;;0.20;99.90;;;;;;5084553;28;20039;-76
2023/01/25 06:48:58;;;;;;;14.80;8.18;;;0.20;99.90;;;;;;5078752;28;20027;-76
2023/01/25 06:51:24;;;;;;;17.08;7.78;;;0.30;99.90;;;;;;5077314;28;20228;-76
2023/01/25 06:53:50;;;;;;;17.35;8.45;;;0.30;99.90;;;;;;5065981;28;20029;-76
2023/01/25 06:56:21;;;;;;;15.10;8.02;;;0.20;99.90;;;;;;5049131;28;20082;-77
2023/01/25 06:58:48;;;;;;;16.63;8.98;;;0.20;99.90;;;;;;5082598;28;20032;-77
2023/01/25 07:01:20;;;;;;;20.58;11.13;;;0.20;99.90;;;;;;5078191;28;20040;-76
2023/01/25 07:03:51;;;;;;;24.30;13.45;;;0.30;99.90;;;;;;5074133;28;20056;-76
2023/01/25 07:06:17;;;;;;;20.45;11.73;;;0.20;99.90;;;;;;5061312;28;20036;-76
2023/01/25 07:08:43;;;;;;;48.10;23.58;;;0.20;99.90;;;;;;5078418;28;20592;-76
2023/01/25 07:11:12;;;;;;;42.17;19.83;;;0.20;99.90;;;;;;5076954;28;20029;-76
2023/01/25 07:13:44;;;;;;;16.25;8.98;;;0.20;99.90;;;;;;5068555;28;20112;-76
2023/01/25 07:16:12;;;;;;;15.50;8.57;;;0.30;99.90;;;;;;5074170;28;20437;-76
2023/01/25 07:18:39;;;;;;;17.00;7.70;;;0.30;99.90;;;;;;5075136;28;20032;-77
2023/01/25 07:21:15;;;;;;;16.17;8.13;;;0.30;99.90;;;;;;5076950;28;20071;-76
2023/01/25 07:23:42;;;;;;;23.02;10.20;;;0.30;99.90;;;;;;5073452;28;20032;-77
2023/01/25 07:26:20;;;;;;;17.88;9.23;;;0.30;99.90;;;;;;5071448;28;20436;-76
2023/01/25 07:28:47;;;;;;;20.17;9.90;;;0.30;99.90;;;;;;5076480;28;20591;-74
2023/01/25 07:31:14;;;;;;;14.95;8.27;;;0.30;99.90;;;;;;5078807;28;20421;-76
2023/01/25 07:33:40;;;;;;;14.95;8.57;;;0.30;99.90;;;;;;5074648;28;20031;-77
2023/01/25 07:36:08;;;;;;;18.67;9.45;;;0.30;99.90;;;;;;5076052;28;20020;-77
2023/01/25 07:38:35;;;;;;;18.50;8.63;;;0.30;99.90;;;;;;5080815;28;20059;-76
2023/01/25 07:41:02;;;;;;;15.80;9.20;;;0.30;99.90;;;;;;5079017;28;20052;-76
2023/01/25 07:43:29;;;;;;;18.38;9.02;;;0.30;99.90;;;;;;5080335;28;20106;-77
2023/01/25 07:46:10;;;;;;;15.75;8.57;;;0.30;99.90;;;;;;5079057;28;20028;-76
2023/01/25 07:48:36;;;;;;;14.82;8.63;;;0.30;99.90;;;;;;5081550;28;20088;-77
2023/01/25 07:51:11;;;;;;;16.08;8.40;;;0.40;99.90;;;;;;5076276;28;20272;-76
2023/01/25 07:53:39;;;;;;;15.57;8.77;;;0.30;99.90;;;;;;5071625;28;20397;-76
2023/01/25 07:56:06;;;;;;;15.55;9.10;;;0.30;99.90;;;;;;5074652;28;20043;-75
2023/01/25 07:58:33;;;;;;;17.65;8.70;;;0.30;99.90;;;;;;5063154;28;20029;-76
2023/01/25 08:01:06;;;;;;;17.23;9.25;;;0.30;99.90;;;;;;5062074;28;20024;-76
2023/01/25 08:03:32;;;;;;;17.45;9.27;;;0.40;99.90;;;;;;5060937;28;20020;-76
2023/01/25 08:05:58;;;;;;;17.83;8.73;;;0.40;99.90;;;;;;5075116;28;20541;-76
2023/01/25 08:08:24;;;;;;;16.20;8.82;;;0.40;99.90;;;;;;5069600;28;20029;-76
2023/01/25 08:10:50;;;;;;;16.65;8.68;;;0.40;99.90;;;;;;5063597;28;20028;-76
2023/01/25 08:13:16;;;;;;;14.82;7.88;;;0.40;99.90;;;;;;5087906;28;20028;-75
2023/01/25 08:15:43;;;;;;;15.10;8.48;;;0.40;99.90;;;;;;5057800;28;20060;-76
2023/01/25 08:18:08;;;;;;;19.40;9.35;;;0.40;99.90;;;;;;5052915;28;20114;-76
2023/01/25 08:20:36;;;;;;;16.98;8.30;;;0.50;99.90;;;;;;5085069;28;20115;-76
2023/01/25 08:23:02;;;;;;;16.98;8.43;;;0.40;99.90;;;;;;5077460;28;20037;-77
2023/01/25 08:25:28;;;;;;;12.80;8.00;;;0.40;99.90;;;;;;5090305;28;20056;-76
2023/01/25 08:27:54;;;;;;;15.57;8.30;;;0.40;99.90;;;;;;5106991;28;20023;-76
2023/01/25 08:30:20;;;;;;;16.90;8.45;;;0.40;99.90;;;;;;5085941;28;20558;-76
2023/01/25 08:32:46;;;;;;;17.08;8.27;;;0.40;99.90;;;;;;5092194;28;20035;-76
2023/01/25 08:35:11;;;;;;;18.38;8.98;;;0.50;99.90;;;;;;5088045;28;20086;-76
2023/01/25 08:37:37;;;;;;;14.05;8.05;;;0.50;99.90;;;;;;5079808;28;20042;-76
2023/01/25 08:40:04;;;;;;;15.23;7.95;;;0.50;99.90;;;;;;5074203;28;20032;-76
2023/01/25 08:42:30;;;;;;;15.38;8.27;;;0.50;99.90;;;;;;5062979;28;20431;-76
2023/01/25 08:44:56;;;;;;;18.13;8.90;;;0.50;99.90;;;;;;5078860;28;20028;-76
2023/01/25 08:47:21;;;;;;;15.90;8.57;;;0.60;99.90;;;;;;5073891;28;20036;-76
2023/01/25 08:49:49;;;;;;;17.38;9.40;;;0.50;99.90;;;;;;5071536;28;20075;-76
2023/01/25 08:52:15;;;;;;;15.73;7.75;;;0.40;99.90;;;;;;5084043;28;20103;-76
2023/01/25 08:54:43;;;;;;;17.95;8.85;;;0.40;99.90;;;;;;5075593;28;20031;-76
2023/01/25 08:57:09;;;;;;;18.13;8.65;;;0.40;99.90;;;;;;5085491;28;20043;-76
2023/01/25 08:59:35;;;;;;;13.27;7.68;;;0.30;99.90;;;;;;5076882;28;20066;-75
2023/01/25 09:02:00;;;;;;;19.65;8.23;;;0.30;99.90;;;;;;5075171;28;20059;-76
2023/01/25 09:04:27;;;;;;;16.75;8.13;;;0.30;99.90;;;;;;5076252;28;20090;-77
2023/01/25 09:06:54;;;;;;;15.48;8.15;;;0.30;99.90;;;;;;5077119;28;20120;-77
2023/01/25 09:09:23;;;;;;;17.20;9.20;;;0.40;99.90;;;;;;5069980;28;20058;-77
2023/01/25 09:11:50;;;;;;;16.92;9.77;;;0.30;99.90;;;;;;5073553;28;20458;-74
2023/01/25 09:14:15;;;;;;;15.65;7.97;;;0.30;99.90;;;;;;5060709;28;20112;-76
2023/01/25 09:16:41;;;;;;;17.73;8.70;;;0.30;99.90;;;;;;5072568;28;20055;-76
2023/01/25 09:19:08;;;;;;;16.55;8.70;;;0.30;99.90;;;;;;5057013;28;20033;-78
2023/01/25 09:21:35;;;;;;;14.43;8.20;;;0.30;99.90;;;;;;5074199;28;20035;-76
2023/01/25 09:24:02;;;;;;;15.27;9.20;;;0.30;99.90;;;;;;5072294;28;20039;-76
2023/01/25 09:26:28;;;;;;;16.02;8.15;;;0.40;99.90;;;;;;5068113;28;20024;-76
2023/01/25 09:28:54;;;;;;;22.10;9.15;;;0.40;99.90;;;;;;5071481;28;20016;-76
2023/01/25 09:31:21;;;;;;;17.73;9.07;;;0.40;99.90;;;;;;5070148;28;20028;-76
2023/01/25 09:34:13;;;;;;;19.73;9.13;;;0.30;99.90;;;;;;5070190;28;20024;-76
2023/01/25 09:36:39;;;;;;;16.58;8.80;;;0.30;99.90;;;;;;5068098;28;20108;-76
2023/01/25 09:39:05;;;;;;;18.95;9.40;;;0.30;99.90;;;;;;5084846;28;20021;-74
2023/01/25 09:41:37;;;;;;;17.70;8.98;;;0.30;99.90;;;;;;5065266;28;20020;-76
2023/01/25 09:44:29;;;;;;;17.52;9.23;;;0.30;99.90;;;;;;5069445;28;20688;-74
2023/01/25 09:47:02;;;;;;;19.83;9.13;;;0.40;99.90;;;;;;5068685;28;20554;-74
2023/01/25 09:49:59;;;;;;;18.98;9.35;;;0.40;99.90;;;;;;5065436;28;20024;-75
2023/01/25 09:52:53;;;;;;;15.18;8.15;;;0.40;99.90;;;;;;5082050;28;20107;-76
2023/01/25 09:55:23;;;;;;;19.10;8.80;;;0.40;99.90;;;;;;5068775;28;20032;-75
2023/01/25 09:57:52;;;;;;;20.08;10.15;;;0.50;99.90;;;;;;5076141;28;20089;-76
2023/01/25 10:00:26;;;;;;;17.95;9.60;;;0.50;99.90;;;;;;5071083;28;20044;-75
2023/01/25 10:03:00;;;;;;;17.98;9.57;;;0.50;99.90;;;;;;5070857;28;20048;-76
2023/01/25 10:05:41;;;;;;;18.85;9.95;;;0.60;99.90;;;;;;5068662;28;20035;-76
2023/01/25 10:08:24;;;;;;;18.15;9.25;;;0.50;99.90;;;;;;5072491;28;20040;-75
2023/01/25 10:11:01;;;;;;;19.27;9.13;;;0.60;99.90;;;;;;5071515;28;20108;-74
2023/01/25 10:13:30;;;;;;;19.73;9.98;;;0.60;99.90;;;;;;5063758;28;20111;-75
2023/01/25 10:16:03;;;;;;;18.10;9.38;;;0.50;99.90;;;;;;5069773;28;20058;-77
2023/01/25 10:18:39;;;;;;;19.05;9.93;;;0.50;99.90;;;;;;5078894;28;20082;-77
2023/01/25 10:21:36;;;;;;;20.50;9.70;;;0.50;99.90;;;;;;5072297;28;20036;-76
2023/01/25 10:24:26;;;;;;;20.05;10.50;;;0.50;99.90;;;;;;5070244;28;20052;-76
2023/01/25 10:27:02;;;;;;;20.13;9.82;;;0.50;99.90;;;;;;5074379;28;20075;-76
2023/01/25 10:29:33;;;;;;;22.63;10.63;;;0.50;99.90;;;;;;5073353;28;20026;-76
2023/01/25 10:32:23;;;;;;;20.00;10.05;;;0.50;99.90;;;;;;5084512;28;20085;-76
2023/01/25 10:34:50;;;;;;;18.17;9.40;;;0.50;99.90;;;;;;5070528;28;20028;-75
2023/01/25 10:37:21;;;;;;;23.27;11.07;;;0.50;99.90;;;;;;5079008;28;20059;-76
2023/01/25 10:39:57;;;;;;;20.08;10.23;;;0.50;99.90;;;;;;5085634;28;20024;-76
2023/01/25 10:42:28;;;;;;;16.75;9.38;;;0.50;99.90;;;;;;5082791;28;20093;-75
2023/01/25 10:44:54;;;;;;;21.23;10.75;;;0.50;99.90;;;;;;5065354;28;20475;-74
2023/01/25 10:47:26;;;;;;;20.27;10.00;;;0.50;99.90;;;;;;5078333;28;20029;-75
2023/01/25 10:49:54;;;;;;;18.58;9.80;;;0.50;99.90;;;;;;5069110;28;20083;-75
2023/01/25 10:52:29;;;;;;;19.17;9.63;;;0.50;99.90;;;;;;5081471;28;20028;-76
2023/01/25 10:55:14;;;;;;;21.88;10.48;;;0.50;99.90;;;;;;5077742;28;20047;-76
2023/01/25 10:57:47;;;;;;;23.95;10.70;;;0.40;99.90;;;;;;5074076;28;20028;-76
2023/01/25 11:00:26;;;;;;;18.35;10.00;;;0.40;99.90;;;;;;5084901;28;20090;-76
2023/01/25 11:02:53;;;;;;;20.02;10.57;;;0.50;99.90;;;;;;5070172;28;20070;-76
2023/01/25 11:05:34;;;;;;;21.38;10.88;;;0.40;99.90;;;;;;5074832;28;20760;-76
2023/01/25 11:08:23;;;;;;;20.25;10.73;;;0.50;99.90;;;;;;5081031;28;20511;-76
2023/01/25 11:10:49;;;;;;;21.80;10.23;;;0.50;99.90;;;;;;5085976;28;20020;-77
2023/01/25 11:13:15;;;;;;;21.85;10.73;;;0.50;99.90;;;;;;5073292;28;20162;-76
2023/01/25 11:15:50;;;;;;;18.45;9.63;;;0.50;99.90;;;;;;5068353;28;20119;-74
2023/01/25 11:18:27;;;;;;;28.73;16.08;;;0.60;99.90;;;;;;5069039;28;20093;-75
2023/01/25 11:21:17;;;;;;;36.00;16.35;;;0.60;99.90;;;;;;5070324;28;20032;-77
2023/01/25 11:24:04;;;;;;;18.17;10.18;;;0.60;99.90;;;;;;5083646;28;20023;-74
2023/01/25 11:26:31;;;;;;;19.38;9.18;;;0.60;99.90;;;;;;5070371;28;20047;-75
2023/01/25 11:29:14;;;;;;;18.15;10.30;;;0.60;99.90;;;;;;5097596;28;20023;-75
2023/01/25 11:31:44;;;;;;;19.00;9.88;;;0.60;99.90;;;;;;5081377;28;20024;-77
2023/01/25 11:34:13;;;;;;;20.00;11.27;;;0.60;99.90;;;;;;5058995;28;20641;-75
2023/01/25 11:36:58;;;;;;;19.73;10.50;;;0.60;99.90;;;;;;5072278;28;20111;-76
2023/01/25 11:39:43;;;;;;;17.80;9.48;;;0.60;99.90;;;;;;5069459;28;20095;-76
2023/01/25 11:42:33;;;;;;;19.90;10.07;;;0.60;99.90;;;;;;5077101;28;20035;-77
2023/01/25 11:45:13;;;;;;;20.90;11.00;;;0.60;99.90;;;;;;5055521;28;20032;-77
2023/01/25 11:47:53;;;;;;;22.65;10.32;;;0.60;99.90;;;;;;5062642;28;20051;-74
2023/01/25 11:50:45;;;;;;;20.48;10.27;;;0.60;99.90;;;;;;5077191;28;20536;-75
2023/01/25 11:53:34;;;;;;;18.42;10.18;;;0.60;99.90;;;;;;5070878;28;20040;-77
2023/01/25 11:56:25;;;;;;;20.13;10.63;;;0.70;99.90;;;;;;5071575;28;20024;-75
2023/01/25 11:59:21;;;;;;;18.45;10.50;;;0.70;99.90;;;;;;5067767;28;20048;-77
2023/01/25 12:02:21;;;;;;;17.67;9.38;;;0.80;99.90;;;;;;5073416;28;20111;-76
2023/01/25 12:05:15;;;;;;;23.30;9.95;;;0.70;99.90;;;;;;5071312;28;20078;-74
2023/01/25 12:07:40;;;;;;;19.60;9.80;;;0.80;99.90;;;;;;5056717;28;20101;-74
2023/01/25 12:10:15;;;;;;;20.27;10.50;;;0.70;99.90;;;;;;5065269;28;20037;-75
2023/01/25 12:12:59;;;;;;;18.83;10.38;;;0.70;99.90;;;;;;5067162;28;20114;-77
2023/01/25 12:15:43;;;;;;;20.27;10.35;;;0.80;99.90;;;;;;5060140;28;20020;-75
2023/01/25 12:18:48;;;;;;;23.52;11.40;;;0.80;99.90;;;;;;5069622;28;20143;-75
2023/01/25 12:21:22;;;;;;;25.70;13.55;;;0.80;99.90;;;;;;5071828;28;20039;-77
2023/01/25 12:23:54;;;;;;;18.10;10.20;;;0.80;99.90;;;;;;5064734;28;20031;-77
2023/01/25 12:26:32;;;;;;;19.38;10.07;;;0.80;99.90;;;;;;5063056;28;20514;-77
2023/01/25 12:29:17;;;;;;;20.67;10.15;;;0.70;99.90;;;;;;5071504;28;20434;-76
2023/01/25 12:32:07;;;;;;;17.85;10.05;;;0.80;99.90;;;;;;5066858;28;20804;-76
2023/01/25 12:34:43;;;;;;;18.42;9.57;;;0.80;99.90;;;;;;5068745;28;20035;-76
2023/01/25 12:37:23;;;;;;;21.60;10.23;;;0.80;99.90;;;;;;5052183;28;20180;-76
2023/01/25 12:39:59;;;;;;;22.02;11.25;;;0.80;99.90;;;;;;5056979;28;20032;-76
2023/01/25 12:42:42;;;;;;;18.58;10.30;;;0.60;99.90;;;;;;5068193;28;20036;-77
2023/01/25 12:45:18;;;;;;;19.52;11.05;;;0.50;99.90;;;;;;5069692;28;20070;-74
2023/01/25 12:47:57;;;;;;;22.30;10.43;;;0.50;99.90;;;;;;5066313;28;20025;-76
2023/01/25 12:50:49;;;;;;;17.95;9.32;;;0.60;99.90;;;;;;5061220;28;20547;-77
2023/01/25 12:53:42;;;;;;;21.00;11.10;;;0.60;99.90;;;;;;5067983;28;20031;-76
2023/01/25 12:56:14;;;;;;;20.52;9.85;;;0.70;99.90;;;;;;5068845;28;20024;-77
2023/01/25 12:58:54;;;;;;;15.07;8.93;;;0.70;99.90;;;;;;5065136;28;20036;-76
2023/01/25 13:01:46;;;;;;;19.77;9.95;;;0.70;99.90;;;;;;5064565;28;20028;-76
2023/01/25 13:04:35;;;;;;;19.23;9.40;;;0.70;99.90;;;;;;5066783;28;20020;-76